Time;durP1;ratioP1;P1;durP2;ratioP2;P2;SDS_P1;SDS_P2;PMS_P1;PMS_P2;Temp;Humidity;BMP_temperature;BMP_pressure;BME280_temperature;BME280_humidity;BME280_pressure;Samples;Min_cycle;Max_cycle;Signal;HPM_P1;HPM_P2
2022/06/27 00:02:41;;;;;;;3.38;2.28;;;;;;;18.88;80.24;98737.56;2618844;54;20035;-67
2022/06/27 00:05:12;;;;;;;4.68;2.80;;;;;;;18.85;80.26;98730.84;2619254;39;20454;-66
2022/06/27 00:07:42;;;;;;;3.78;2.38;;;;;;;18.87;80.88;98726.06;2618267;47;20065;-67
2022/06/27 00:10:12;;;;;;;2.60;2.40;;;;;;;18.88;80.82;98734.91;2618857;54;20034;-65
2022/06/27 00:12:42;;;;;;;3.53;2.72;;;;;;;18.91;80.11;98737.09;2619119;39;20495;-67
2022/06/27 00:15:15;;;;;;;2.60;2.40;;;;;;;18.93;80.31;98743.81;2619235;54;20107;-66
2022/06/27 00:17:44;;;;;;;3.55;2.35;;;;;;;18.93;80.31;98759.06;2618759;54;20034;-67
2022/06/27 00:20:14;;;;;;;4.55;2.35;;;;;;;18.92;80.24;98765.50;2619657;31;20558;-67
2022/06/27 00:22:44;;;;;;;8.55;2.45;;;;;;;18.92;80.18;98770.84;2618939;54;20038;-66
2022/06/27 00:25:14;;;;;;;2.70;2.50;;;;;;;18.91;80.29;98779.94;2619070;54;20082;-66
2022/06/27 00:27:44;;;;;;;2.97;2.63;;;;;;;18.89;80.25;98785.53;2619040;47;20049;-67
2022/06/27 00:30:17;;;;;;;7.05;4.05;;;;;;;18.92;80.37;98777.00;2618370;54;20589;-66
2022/06/27 00:32:48;;;;;;;4.18;2.70;;;;;;;18.92;80.52;98766.28;2618656;54;20038;-67
2022/06/27 00:35:17;;;;;;;4.03;2.75;;;;;;;18.89;80.38;98748.03;2618456;54;20046;-67
2022/06/27 00:37:47;;;;;;;3.42;2.85;;;;;;;18.77;80.10;98718.69;2618446;51;20038;-66
2022/06/27 00:40:17;;;;;;;4.65;3.28;;;;;;;18.38;81.64;98715.19;2618955;54;20034;-67
2022/06/27 00:42:48;;;;;;;3.80;3.13;;;;;;;18.38;82.35;98727.75;2618871;39;20435;-66
2022/06/27 00:45:20;;;;;;;3.97;3.20;;;;;;;18.47;82.19;98728.94;2618558;46;20027;-66
2022/06/27 00:47:50;;;;;;;3.63;2.70;;;;;;;18.56;81.99;98720.25;2618389;47;20018;-67
2022/06/27 00:50:20;;;;;;;3.88;3.40;;;;;;;18.50;81.43;98710.53;2618592;54;20562;-66
2022/06/27 00:52:52;;;;;;;3.75;3.30;;;;;;;18.46;82.02;98703.25;2618635;54;20030;-66
2022/06/27 00:55:22;;;;;;;3.63;3.22;;;;;;;18.40;82.72;98686.28;2618876;54;20030;-65
2022/06/27 00:57:52;;;;;;;5.85;3.47;;;;;;;18.34;82.71;98695.31;2618239;47;20038;-67
2022/06/27 01:00:25;;;;;;;3.65;3.35;;;;;;;18.27;83.63;98692.78;2618178;47;20034;-66
2022/06/27 01:02:55;;;;;;;3.63;3.28;;;;;;;18.25;83.35;98686.09;2617590;54;20032;-66
2022/06/27 01:05:25;;;;;;;3.78;2.60;;;;;;;18.23;83.97;98686.31;2618584;54;20155;-67
2022/06/27 01:07:55;;;;;;;6.70;3.50;;;;;;;18.27;84.01;98662.56;2618304;47;20029;-66
2022/06/27 01:10:25;;;;;;;3.35;3.05;;;;;;;18.21;83.77;98642.16;2619129;54;20046;-67
2022/06/27 01:12:55;;;;;;;4.47;3.40;;;;;;;18.13;84.16;98642.56;2618350;54;20645;-66
2022/06/27 01:15:27;;;;;;;4.53;2.97;;;;;;;18.06;84.71;98629.34;2618280;47;20038;-66
2022/06/27 01:17:57;;;;;;;3.33;3.00;;;;;;;18.00;84.68;98619.63;2618351;54;20076;-68
2022/06/27 01:20:27;;;;;;;3.97;3.00;;;;;;;17.97;84.94;98615.59;2619328;39;20423;-66
2022/06/27 01:23:00;;;;;;;4.47;3.70;;;;;;;18.03;85.44;98609.25;2618196;54;20027;-66
2022/06/27 01:25:31;;;;;;;3.83;3.53;;;;;;;18.05;85.14;98612.50;2618412;47;20085;-67
2022/06/27 01:28:02;;;;;;;4.50;4.05;;;;;;;18.10;85.18;98619.78;2618842;46;20069;-67
2022/06/27 01:30:32;;;;;;;4.78;3.95;;;;;;;18.19;85.04;98618.31;2619456;54;20033;-66
2022/06/27 01:33:02;;;;;;;4.43;3.80;;;;;;;18.24;85.59;98626.38;2619832;54;20042;-67
2022/06/27 01:35:32;;;;;;;5.45;4.10;;;;;;;18.32;85.35;98617.13;2622526;54;20026;-65
2022/06/27 01:38:04;;;;;;;3.92;3.53;;;;;;;18.35;85.23;98624.69;2622135;39;20431;-67
2022/06/27 01:40:34;;;;;;;3.90;3.60;;;;;;;18.42;85.31;98635.22;2621545;54;20022;-66
2022/06/27 01:43:06;;;;;;;4.28;3.72;;;;;;;18.43;84.33;98629.59;2620843;47;20030;-66
2022/06/27 01:45:36;;;;;;;3.92;3.50;;;;;;;18.38;84.44;98612.69;2620548;51;20159;-66
2022/06/27 01:48:06;;;;;;;5.15;3.38;;;;;;;18.38;84.77;98610.00;2620358;51;20027;-66
2022/06/27 01:50:37;;;;;;;3.65;3.35;;;;;;;18.42;84.95;98611.94;2622428;54;20034;-65
2022/06/27 01:53:11;;;;;;;3.38;3.08;;;;;;;18.44;83.76;98603.66;2621148;47;20038;-66
2022/06/27 01:55:41;;;;;;;3.67;3.35;;;;;;;18.41;84.45;98607.66;2620070;54;20030;-66
2022/06/27 01:58:11;;;;;;;4.88;2.78;;;;;;;18.51;84.42;98613.09;2619512;54;20538;-66
2022/06/27 02:00:41;;;;;;;5.93;3.30;;;;;;;18.63;83.79;98602.28;2619656;54;20031;-66
2022/06/27 02:03:11;;;;;;;3.63;3.25;;;;;;;18.70;83.63;98605.63;2620042;47;20033;-66
2022/06/27 02:05:43;;;;;;;6.95;3.92;;;;;;;18.73;83.18;98588.22;2621198;54;20110;-65
2022/06/27 02:08:16;;;;;;;3.55;3.25;;;;;;;18.58;82.80;98588.84;2621930;39;20418;-66
2022/06/27 02:10:46;;;;;;;4.13;3.70;;;;;;;18.41;83.34;98575.53;2621177;47;20027;-66
2022/06/27 02:13:16;;;;;;;3.70;3.40;;;;;;;18.34;83.68;98576.78;2621306;39;20520;-65
2022/06/27 02:16:06;;;;;;;5.18;3.70;;;;;;;18.36;83.93;98588.81;2620698;54;20028;-65
2022/06/27 02:18:38;;;;;;;3.47;3.17;;;;;;;18.47;84.40;98617.34;2620159;54;20542;-65
2022/06/27 02:21:11;;;;;;;3.92;3.53;;;;;;;18.58;83.44;98615.63;2620231;54;20034;-65
2022/06/27 02:23:43;;;;;;;3.75;3.45;;;;;;;18.61;83.12;98596.34;2619321;54;20039;-65
2022/06/27 02:26:15;;;;;;;4.13;3.53;;;;;;;18.65;82.78;98584.09;2619846;39;20426;-65
2022/06/27 02:28:45;;;;;;;3.97;3.67;;;;;;;18.67;83.13;98581.97;2619438;47;20035;-66
2022/06/27 02:31:15;;;;;;;5.25;4.32;;;;;;;18.64;83.23;98598.53;2619373;54;20035;-66
2022/06/27 02:33:47;;;;;;;4.53;3.72;;;;;;;18.61;83.03;98609.75;2619356;54;20045;-65
2022/06/27 02:36:19;;;;;;;8.93;4.03;;;;;;;18.62;83.56;98638.16;2618857;54;20550;-65
2022/06/27 02:38:55;;;;;;;4.85;4.35;;;;;;;18.49;83.35;98630.47;2619202;54;20033;-66
2022/06/27 02:41:29;;;;;;;5.95;4.85;;;;;;;18.40;83.84;98627.41;2618474;51;20035;-64
2022/06/27 02:44:04;;;;;;;5.63;4.40;;;;;;;18.39;83.98;98627.66;2619344;54;20038;-66
2022/06/27 02:46:34;;;;;;;5.05;4.63;;;;;;;18.43;84.48;98637.63;2619681;39;20434;-66
2022/06/27 02:49:05;;;;;;;4.75;4.38;;;;;;;18.49;83.96;98651.88;2619447;54;20038;-65
2022/06/27 02:51:39;;;;;;;5.80;4.95;;;;;;;18.48;83.75;98660.97;2618814;51;20035;-67
2022/06/27 02:54:17;;;;;;;5.43;4.93;;;;;;;18.45;84.43;98661.47;2619152;54;20050;-67
2022/06/27 02:57:03;;;;;;;5.55;4.90;;;;;;;18.48;84.16;98672.47;2618603;54;20030;-66
2022/06/27 02:59:36;;;;;;;9.02;4.95;;;;;;;18.44;84.28;98683.94;2619218;54;20049;-66
2022/06/27 03:02:10;;;;;;;5.40;5.00;;;;;;;18.39;84.58;98687.34;2618705;39;20438;-66
2022/06/27 03:05:03;;;;;;;5.40;4.88;;;;;;;18.35;84.76;98672.84;2618498;51;20023;-66
2022/06/27 03:07:39;;;;;;;6.03;5.30;;;;;;;18.34;84.84;98665.88;2618384;51;20019;-66
2022/06/27 03:10:14;;;;;;;6.22;5.57;;;;;;;18.34;84.75;98681.94;2618415;47;20029;-67
2022/06/27 03:12:47;;;;;;;6.00;5.47;;;;;;;18.35;84.69;98674.72;2618407;39;20438;-66
2022/06/27 03:15:18;;;;;;;6.50;5.82;;;;;;;18.39;85.09;98654.44;2618431;54;20048;-65
2022/06/27 03:17:49;;;;;;;6.05;5.47;;;;;;;18.39;84.90;98654.44;2618391;46;20019;-66
2022/06/27 03:20:31;;;;;;;5.80;5.30;;;;;;;18.38;84.80;98660.84;2619454;54;20041;-66
2022/06/27 03:23:20;;;;;;;6.30;5.80;;;;;;;18.36;84.50;98641.53;2618024;47;20050;-66
2022/06/27 03:25:59;;;;;;;7.85;6.05;;;;;;;18.37;84.59;98635.13;2618647;54;20110;-66
2022/06/27 03:28:35;;;;;;;7.03;5.93;;;;;;;18.35;84.39;98631.91;2618656;54;20110;-67
2022/06/27 03:31:05;;;;;;;6.68;6.05;;;;;;;18.29;84.57;98641.72;2619166;54;20146;-67
2022/06/27 03:33:40;;;;;;;8.30;6.70;;;;;;;18.26;84.58;98656.41;2618823;54;20022;-66
2022/06/27 03:36:27;;;;;;;7.07;6.45;;;;;;;18.27;84.81;98671.38;2618650;47;20038;-66
2022/06/27 03:38:57;;;;;;;6.53;6.00;;;;;;;18.31;84.89;98666.38;2619395;54;20129;-66
2022/06/27 03:41:31;;;;;;;7.45;6.70;;;;;;;18.32;84.64;98662.63;2618648;39;20821;-65
2022/06/27 03:44:01;;;;;;;9.67;7.23;;;;;;;18.36;84.74;98661.06;2618206;54;20041;-65
2022/06/27 03:46:31;;;;;;;6.75;6.05;;;;;;;18.41;84.54;98646.94;2618660;54;20045;-66
2022/06/27 03:52:02;;;;;;;7.82;7.00;;;;;;;18.35;84.13;98664.00;2617918;54;20058;-65
2022/06/27 03:54:33;;;;;;;8.82;8.02;;;;;;;18.29;84.34;98665.81;2618197;54;20037;-65
2022/06/27 03:57:06;;;;;;;9.07;7.72;;;;;;;18.27;84.66;98665.22;2618367;47;20026;-65
2022/06/27 03:59:35;;;;;;;9.02;8.13;;;;;;;18.26;84.89;98663.63;2618460;50;20195;-66
2022/06/27 04:02:06;;;;;;;10.27;7.30;;;;;;;18.22;84.75;98651.78;2590619;47;20041;-70
2022/06/27 06:57:43;;;;;;;21.95;18.75;;;;;;;20.01;79.34;98824.44;2580446;46;20041;-67
2022/06/27 07:00:14;;;;;;;22.45;18.65;;;;;;;20.04;78.28;98809.69;2621620;54;20022;-66
2022/06/27 07:02:52;;;;;;;20.30;16.65;;;;;;;20.09;77.13;98796.34;2622847;54;20022;-67
2022/06/27 07:05:22;;;;;;;18.10;15.95;;;;;;;20.20;77.12;98791.84;2622655;54;20034;-67
2022/06/27 07:07:53;;;;;;;16.00;13.82;;;;;;;20.24;75.88;98785.72;2623517;54;20049;-66
2022/06/27 07:10:25;;;;;;;28.13;13.20;;;;;;;20.17;75.27;98784.34;2622407;54;20042;-67
2022/06/27 07:12:58;;;;;;;14.70;13.18;;;;;;;20.15;75.65;98767.66;2621742;54;20031;-67
2022/06/27 07:15:28;;;;;;;18.63;13.70;;;;;;;20.11;75.50;98767.34;2619602;54;20034;-67
2022/06/27 07:17:58;;;;;;;18.00;14.30;;;;;;;20.19;75.76;98784.88;2619633;54;20053;-68
2022/06/27 07:20:30;;;;;;;14.38;12.88;;;;;;;20.27;75.61;98808.56;2619658;54;20038;-67
2022/06/27 07:22:59;;;;;;;14.25;12.65;;;;;;;20.40;75.41;98800.06;2618442;54;20034;-67
2022/06/27 07:25:29;;;;;;;15.57;13.98;;;;;;;20.58;75.25;98795.41;2618637;47;20031;-67
2022/06/27 07:28:04;;;;;;;14.63;13.13;;;;;;;20.73;74.65;98796.31;2620080;54;20033;-67
2022/06/27 07:30:34;;;;;;;15.50;13.90;;;;;;;20.82;74.47;98795.81;2618949;54;20030;-67
2022/06/27 07:33:04;;;;;;;15.32;12.77;;;;;;;20.91;73.62;98788.91;2619396;54;20069;-66
2022/06/27 07:35:34;;;;;;;13.85;12.45;;;;;;;20.92;73.50;98780.59;2619483;54;20045;-66
2022/06/27 07:38:04;;;;;;;13.60;11.70;;;;;;;20.89;72.76;98786.47;2619867;54;20034;-67
2022/06/27 07:40:35;;;;;;;10.52;9.43;;;;;;;20.78;72.31;98780.25;2620097;39;20395;-67
2022/06/27 07:43:09;;;;;;;12.32;11.10;;;;;;;20.74;72.82;98784.50;2619109;54;20042;-66
2022/06/27 07:45:39;;;;;;;11.38;10.05;;;;;;;20.75;72.79;98780.75;2618989;54;20034;-67
2022/06/27 07:48:09;;;;;;;11.13;9.93;;;;;;;20.80;73.03;98779.97;2618759;54;20039;-67
2022/06/27 07:50:42;;;;;;;12.73;10.10;;;;;;;20.77;72.53;98797.41;2618935;54;20061;-67
2022/06/27 07:53:15;;;;;;;13.00;10.48;;;;;;;20.67;72.43;98799.22;2618541;47;20019;-66
2022/06/27 07:55:47;;;;;;;12.07;10.77;;;;;;;20.65;73.03;98787.94;2618910;54;20034;-64
2022/06/27 07:58:21;;;;;;;10.88;9.73;;;;;;;20.64;73.36;98781.75;2618397;47;20034;-64
2022/06/27 08:00:52;;;;;;;11.55;10.38;;;;;;;20.80;72.60;98795.28;2618793;54;20026;-66
2022/06/27 08:06:08;;;;;;;9.10;8.10;;;;;;;20.98;72.11;98805.59;2620066;54;20142;-67
2022/06/27 08:08:39;;;;;;;9.10;7.82;;;;;;;21.12;71.98;98817.50;2621380;54;20038;-66
2022/06/27 08:11:11;;;;;;;8.57;7.05;;;;;;;21.18;71.00;98829.09;2620474;54;20086;-67
2022/06/27 08:13:44;;;;;;;7.45;6.65;;;;;;;21.18;70.19;98835.25;2622237;54;20523;-66
2022/06/27 08:16:15;;;;;;;9.20;8.18;;;;;;;21.16;70.09;98839.31;2622275;54;20041;-67
2022/06/27 08:18:47;;;;;;;10.43;7.47;;;;;;;21.30;69.84;98845.00;2621681;51;20039;-66
2022/06/27 08:21:20;;;;;;;7.90;6.68;;;;;;;21.39;69.67;98838.91;2621334;54;20031;-66
2022/06/27 08:23:51;;;;;;;8.25;6.03;;;;;;;21.34;68.81;98844.25;2621759;54;20033;-65
2022/06/27 08:26:21;;;;;;;13.52;6.75;;;;;;;21.39;68.70;98840.78;2620712;54;20029;-65
2022/06/27 08:28:54;;;;;;;6.75;6.00;;;;;;;21.30;69.01;98832.38;2619658;47;20038;-65
2022/06/27 08:31:30;;;;;;;8.25;6.95;;;;;;;21.20;69.36;98837.72;2620338;54;20026;-66
2022/06/27 08:34:01;;;;;;;7.65;6.95;;;;;;;21.21;69.42;98856.25;2618788;46;20094;-65
2022/06/27 08:36:31;;;;;;;7.88;6.63;;;;;;;21.36;69.24;98860.16;2618016;47;20027;-65
2022/06/27 08:39:07;;;;;;;9.50;6.72;;;;;;;21.61;69.22;98852.19;2618695;39;20317;-64
2022/06/27 08:41:38;;;;;;;7.55;6.75;;;;;;;21.95;68.59;98865.19;2619002;39;20451;-65
2022/06/27 08:44:10;;;;;;;6.93;6.20;;;;;;;21.97;67.71;98850.41;2619405;39;20438;-65
2022/06/27 08:46:41;;;;;;;7.67;6.20;;;;;;;21.90;67.54;98857.94;2619376;54;20030;-66
2022/06/27 08:49:16;;;;;;;6.95;5.60;;;;;;;22.01;67.84;98866.84;2619010;54;20283;-66
2022/06/27 08:51:46;;;;;;;5.85;4.70;;;;;;;22.30;66.90;98869.09;2619054;54;20538;-65
2022/06/27 08:54:16;;;;;;;6.03;3.40;;;;;;;22.47;65.20;98880.41;2618949;54;20030;-67
2022/06/27 08:56:46;;;;;;;4.85;3.45;;;;;;;22.54;65.33;98885.53;2618627;54;20022;-66
2022/06/27 08:59:19;;;;;;;5.20;3.38;;;;;;;22.45;64.73;98896.84;2618904;54;20039;-67
2022/06/27 09:01:49;;;;;;;4.47;3.60;;;;;;;22.37;64.19;98902.75;2618345;54;20038;-66
2022/06/27 09:04:20;;;;;;;4.70;3.40;;;;;;;22.21;64.04;98896.53;2618718;54;20565;-65
2022/06/27 09:06:58;;;;;;;3.65;2.90;;;;;;;22.10;64.36;98894.03;2619096;54;20034;-65
2022/06/27 09:09:28;;;;;;;4.65;2.90;;;;;;;21.91;65.41;98896.41;2619261;39;20419;-65
2022/06/27 09:11:58;;;;;;;4.53;2.80;;;;;;;21.70;65.63;98892.84;2618607;54;20026;-65
2022/06/27 09:14:39;;;;;;;3.53;3.22;;;;;;;21.52;66.49;98899.50;2618742;54;20570;-65
2022/06/27 09:17:13;;;;;;;3.50;3.10;;;;;;;21.42;66.49;98912.88;2618703;54;20151;-65
2022/06/27 09:19:47;;;;;;;3.10;2.80;;;;;;;21.39;66.90;98916.06;2618981;54;20027;-66
2022/06/27 09:22:19;;;;;;;4.47;2.60;;;;;;;21.25;66.52;98926.44;2618919;54;20398;-65
2022/06/27 09:25:12;;;;;;;2.85;2.53;;;;;;;20.96;66.52;98934.03;2619391;54;20026;-65
2022/06/27 09:27:44;;;;;;;;;;;;;;;20.80;67.16;98932.28;2619039;54;20561;-65
2022/06/27 09:30:29;;;;;;;5.20;3.22;;;;;;;20.81;67.25;98931.22;2618805;54;20453;-66
2022/06/27 09:33:01;;;;;;;3.38;2.70;;;;;;;20.89;67.61;98931.56;2620490;54;20135;-66
2022/06/27 09:35:33;;;;;;;3.80;2.90;;;;;;;20.95;67.23;98927.06;2620456;54;20046;-65
2022/06/27 09:38:06;;;;;;;5.95;3.40;;;;;;;20.83;67.30;98921.84;2622531;54;20047;-66
2022/06/27 09:40:39;;;;;;;4.03;3.15;;;;;;;20.84;68.04;98928.03;2623024;54;20043;-67
2022/06/27 09:43:11;;;;;;;6.35;3.40;;;;;;;20.70;67.61;98939.22;2621994;54;20046;-66
2022/06/27 09:45:46;;;;;;;5.20;3.40;;;;;;;20.65;67.90;98932.97;2622703;54;20539;-66
2022/06/27 09:48:18;;;;;;;3.80;3.38;;;;;;;20.62;67.62;98933.50;2622355;54;20158;-66
2022/06/27 09:50:49;;;;;;;3.80;3.40;;;;;;;20.64;67.75;98942.09;2623048;54;20029;-67
2022/06/27 09:53:26;;;;;;;6.05;3.30;;;;;;;20.59;66.48;98940.19;2618620;39;20437;-66
2022/06/27 09:55:58;;;;;;;4.97;3.60;;;;;;;20.56;66.37;98964.84;2618974;54;20118;-65
2022/06/27 09:58:29;;;;;;;4.05;3.67;;;;;;;20.44;66.98;98966.84;2619033;54;20038;-66
2022/06/27 10:01:22;;;;;;;22.10;5.70;;;;;;;20.37;66.77;98950.94;2618876;46;20042;-66
2022/06/27 10:03:52;;;;;;;5.45;3.70;;;;;;;20.35;66.34;98955.75;2618657;54;20035;-66
2022/06/27 10:06:23;;;;;;;3.72;3.40;;;;;;;20.40;66.64;98963.84;2618385;54;20034;-65
2022/06/27 10:08:53;;;;;;;4.72;3.78;;;;;;;20.51;66.81;98956.75;2619207;39;20468;-66
2022/06/27 10:11:29;;;;;;;4.18;3.38;;;;;;;20.67;66.29;98961.19;2617935;47;20023;-66
2022/06/27 10:14:21;;;;;;;7.38;3.92;;;;;;;20.74;65.70;98966.38;2618226;54;20034;-67
2022/06/27 10:16:58;;;;;;;5.18;3.53;;;;;;;20.78;65.11;98964.81;2618167;47;20029;-64
2022/06/27 10:19:29;;;;;;;3.05;2.70;;;;;;;21.01;65.00;98961.75;2619463;54;20038;-65
2022/06/27 10:21:59;;;;;;;4.07;3.50;;;;;;;21.19;64.70;98967.81;2619401;39;20470;-65
2022/06/27 10:24:36;;;;;;;6.15;2.70;;;;;;;21.18;63.76;98977.75;2619205;54;20035;-65
2022/06/27 10:27:10;;;;;;;3.53;2.92;;;;;;;21.10;63.09;98977.41;2618126;54;20030;-65
2022/06/27 10:29:45;;;;;;;4.10;2.92;;;;;;;21.03;63.34;98994.56;2618410;54;20030;-65
2022/06/27 10:32:46;;;;;;;5.60;3.20;;;;;;;21.07;62.69;98996.75;2618625;39;20434;-65
2022/06/27 10:35:18;;;;;;;6.55;3.00;;;;;;;21.09;62.60;98983.84;2617674;54;20027;-64
2022/06/27 10:37:49;;;;;;;4.13;2.50;;;;;;;21.08;62.05;98988.44;2618279;54;20041;-64
2022/06/27 10:40:55;;;;;;;4.28;3.50;;;;;;;21.16;62.67;98985.25;2618625;39;20432;-66
2022/06/27 10:43:45;;;;;;;2.97;2.65;;;;;;;21.18;61.74;98993.06;2617143;47;20557;-65
2022/06/27 10:46:43;;;;;;;2.38;2.08;;;;;;;21.14;61.36;99006.19;2618244;54;20038;-65
2022/06/27 10:49:24;;;;;;;1.88;1.63;;;;;;;21.15;61.27;98989.03;2618217;54;20031;-65
2022/06/27 10:51:55;;;;;;;2.00;1.88;;;;;;;21.13;60.53;98998.41;2618181;54;20031;-65
2022/06/27 10:54:39;;;;;;;2.78;2.08;;;;;;;21.10;60.42;98999.72;2618244;54;20045;-65
2022/06/27 10:57:09;;;;;;;2.30;1.95;;;;;;;20.99;60.56;98989.97;2617992;54;20581;-65
2022/06/27 11:00:04;;;;;;;3.50;1.75;;;;;;;20.91;60.87;98983.19;2619047;54;20038;-66
2022/06/27 11:02:35;;;;;;;3.95;1.60;;;;;;;20.87;61.10;98986.63;2619100;54;20103;-65
2022/06/27 11:05:16;;;;;;;3.65;2.00;;;;;;;20.84;60.97;98989.81;2621002;39;20443;-65
2022/06/27 11:07:46;;;;;;;2.00;1.70;;;;;;;20.87;61.06;99000.06;2620605;54;20030;-65
2022/06/27 11:10:16;;;;;;;3.85;1.83;;;;;;;20.77;60.90;98996.19;2620840;54;20023;-66
2022/06/27 11:12:46;;;;;;;2.03;1.80;;;;;;;20.72;61.04;99001.53;2620083;47;20037;-66
2022/06/27 11:15:16;;;;;;;1.73;1.60;;;;;;;20.51;61.33;99008.56;2619850;54;20031;-67
2022/06/27 11:17:47;;;;;;;3.10;2.10;;;;;;;20.36;61.76;99012.94;2619874;54;20038;-66
2022/06/27 11:20:29;;;;;;;2.65;2.20;;;;;;;20.37;62.17;99028.81;2619384;54;20030;-65
2022/06/27 11:23:10;;;;;;;4.05;2.33;;;;;;;20.38;62.67;99017.00;2618959;54;20194;-67
2022/06/27 11:25:41;;;;;;;3.35;2.00;;;;;;;20.35;62.42;99022.84;2618637;54;20026;-67
2022/06/27 11:33:38;;;;;;;2.83;1.73;;;;;;;20.56;62.10;99009.69;2618870;54;20034;-66
2022/06/27 11:36:14;;;;;;;4.55;1.98;;;;;;;20.69;62.04;99006.59;2618775;54;20031;-67
2022/06/27 11:38:46;;;;;;;2.88;1.50;;;;;;;20.84;61.36;99001.38;2619325;39;20301;-64
2022/06/27 11:41:17;;;;;;;1.75;1.65;;;;;;;21.05;61.24;99001.56;2619169;54;20044;-64
2022/06/27 11:43:52;;;;;;;2.20;2.00;;;;;;;21.45;60.55;98999.22;2618966;54;20022;-64
2022/06/27 11:46:26;;;;;;;2.65;2.03;;;;;;;21.77;59.79;98992.97;2619097;54;20035;-66
2022/06/27 11:48:58;;;;;;;3.42;1.50;;;;;;;21.79;58.55;98990.00;2618972;54;20054;-66
2022/06/27 11:51:33;;;;;;;1.95;1.45;;;;;;;21.91;58.84;98991.41;2618444;54;20026;-66
2022/06/27 11:54:09;;;;;;;3.95;1.40;;;;;;;22.02;57.90;99005.72;2618648;54;20053;-67
2022/06/27 11:56:41;;;;;;;1.63;1.50;;;;;;;21.96;57.42;99009.47;2618723;54;20034;-67
2022/06/27 11:59:13;;;;;;;2.35;1.75;;;;;;;22.03;57.22;99012.72;2619028;54;20432;-66
2022/06/27 12:01:54;;;;;;;4.07;1.95;;;;;;;22.25;57.07;99017.97;2618842;54;20593;-67
2022/06/27 12:04:29;;;;;;;2.42;1.30;;;;;;;22.42;56.80;99002.41;2618431;54;20593;-66
2022/06/27 12:07:08;;;;;;;1.98;1.40;;;;;;;22.51;56.87;99002.69;2618152;54;20050;-65
2022/06/27 12:09:50;;;;;;;2.65;1.42;;;;;;;22.67;56.76;99003.56;2619420;39;20450;-65
2022/06/27 12:12:21;;;;;;;2.65;1.52;;;;;;;22.79;55.78;98996.03;2618809;54;20035;-65
2022/06/27 12:14:53;;;;;;;4.32;1.50;;;;;;;22.88;55.75;98990.91;2619292;54;20030;-65
2022/06/27 12:17:24;;;;;;;3.47;1.40;;;;;;;22.97;54.98;98983.94;2618526;54;20031;-65
2022/06/27 12:20:01;;;;;;;1.75;1.58;;;;;;;23.11;54.50;98968.84;2619553;39;20471;-65
2022/06/27 12:22:34;;;;;;;2.22;1.50;;;;;;;23.32;54.58;98971.53;2619293;54;20081;-65
2022/06/27 12:25:22;;;;;;;1.60;1.10;;;;;;;23.49;53.52;98975.53;2618945;54;20042;-65
2022/06/27 12:27:52;;;;;;;2.15;1.40;;;;;;;23.26;53.39;98970.69;2619016;54;20045;-66
2022/06/27 12:30:22;;;;;;;3.42;1.30;;;;;;;23.06;53.66;98974.22;2618779;54;20034;-67
2022/06/27 12:32:52;;;;;;;1.50;1.40;;;;;;;23.01;53.81;98982.31;2617798;47;20037;-66
2022/06/27 12:35:21;;;;;;;1.40;1.30;;;;;;;23.08;53.74;98980.16;2618945;54;20029;-66
2022/06/27 12:37:53;;;;;;;1.80;1.70;;;;;;;23.23;54.14;98972.06;2619047;54;20027;-66
2022/06/27 12:40:23;;;;;;;2.70;1.50;;;;;;;23.46;53.46;98981.47;2619073;39;20410;-65
2022/06/27 12:42:52;;;;;;;2.13;1.50;;;;;;;23.82;52.92;98994.09;2618693;54;20045;-65
2022/06/27 12:45:22;;;;;;;3.83;1.70;;;;;;;23.76;52.26;98993.31;2617969;54;20046;-66
2022/06/27 12:47:53;;;;;;;2.08;1.90;;;;;;;23.58;51.44;99001.97;2618919;39;20360;-65
2022/06/27 12:50:22;;;;;;;2.53;1.70;;;;;;;23.38;52.15;99014.38;2618908;54;20045;-67
2022/06/27 12:52:55;;;;;;;2.13;1.50;;;;;;;23.01;52.59;99001.19;2618391;54;20061;-67
2022/06/27 12:55:24;;;;;;;2.63;1.58;;;;;;;23.12;52.66;99002.00;2618910;54;20045;-67
2022/06/27 12:57:55;;;;;;;2.47;1.85;;;;;;;23.27;52.31;98993.09;2618221;54;20057;-66
2022/06/27 13:00:25;;;;;;;2.25;1.85;;;;;;;23.20;52.52;99002.28;2618093;54;20034;-66
2022/06/27 13:02:54;;;;;;;2.25;1.35;;;;;;;23.19;52.09;98997.97;2618289;54;20038;-67
2022/06/27 13:05:32;;;;;;;2.35;1.50;;;;;;;23.18;51.74;99017.91;2619108;31;20522;-65
2022/06/27 13:08:04;;;;;;;3.92;1.60;;;;;;;22.86;51.53;99020.00;2618062;54;20062;-66
2022/06/27 13:10:34;;;;;;;2.47;1.60;;;;;;;22.73;51.98;99022.13;2618292;54;20022;-65
2022/06/27 13:13:05;;;;;;;2.63;1.48;;;;;;;22.70;51.86;99013.81;2618336;54;20030;-65
2022/06/27 13:15:35;;;;;;;3.47;1.70;;;;;;;22.89;51.95;99014.09;2618471;54;20026;-66
2022/06/27 13:18:06;;;;;;;2.90;1.65;;;;;;;23.14;51.61;99018.72;2618400;39;20430;-66
2022/06/27 13:20:36;;;;;;;1.40;1.30;;;;;;;23.14;51.39;99029.50;2617929;54;20037;-66
2022/06/27 13:23:09;;;;;;;2.45;1.50;;;;;;;23.09;51.35;99041.09;2618122;54;20038;-66
2022/06/27 13:25:38;;;;;;;3.43;1.40;;;;;;;22.95;51.25;99050.81;2618199;54;20022;-66
2022/06/27 13:28:08;;;;;;;1.77;1.50;;;;;;;22.86;51.58;99055.03;2618301;54;20554;-65
2022/06/27 13:30:38;;;;;;;1.55;1.27;;;;;;;22.85;51.47;99064.22;2618797;54;20037;-66
2022/06/27 13:33:08;;;;;;;1.92;1.30;;;;;;;22.94;50.85;99078.81;2618496;54;20022;-65
2022/06/27 13:35:37;;;;;;;2.03;1.40;;;;;;;22.98;50.69;99082.59;2619106;54;20018;-66
2022/06/27 13:38:09;;;;;;;2.13;1.20;;;;;;;22.85;50.47;99081.19;2620016;54;20030;-66
2022/06/27 13:40:39;;;;;;;1.42;1.27;;;;;;;22.77;50.81;99073.63;2621246;39;20418;-66
2022/06/27 13:43:09;;;;;;;2.00;1.55;;;;;;;22.97;51.37;99083.66;2620307;54;20021;-66
2022/06/27 13:45:39;;;;;;;2.00;1.60;;;;;;;23.27;50.72;99079.38;2618789;54;20038;-66
2022/06/27 13:48:09;;;;;;;3.38;1.60;;;;;;;23.27;50.26;99082.09;2618685;39;20414;-66
2022/06/27 13:50:39;;;;;;;1.88;1.67;;;;;;;23.27;50.33;99085.63;2618056;54;20030;-66
2022/06/27 13:53:12;;;;;;;1.67;1.58;;;;;;;23.24;50.04;99086.16;2618496;54;20037;-66
2022/06/27 13:55:41;;;;;;;1.50;1.40;;;;;;;23.45;49.96;99082.38;2619112;54;20082;-65
2022/06/27 13:58:11;;;;;;;1.63;1.50;;;;;;;23.59;49.35;99087.22;2618051;54;20171;-66
2022/06/27 14:00:51;;;;;;;1.58;1.45;;;;;;;23.60;49.59;99083.47;2618708;54;20030;-66
2022/06/27 14:03:21;;;;;;;1.50;1.40;;;;;;;23.28;50.36;99089.94;2618580;54;20137;-66
2022/06/27 14:05:51;;;;;;;1.75;1.50;;;;;;;22.94;50.46;99081.50;2619027;39;20409;-65
2022/06/27 14:08:20;;;;;;;1.50;1.30;;;;;;;22.79;51.70;99089.53;2618561;54;20030;-64
2022/06/27 14:11:02;;;;;;;2.00;1.30;;;;;;;22.75;51.79;99105.44;2618703;54;20041;-64
2022/06/27 14:13:31;;;;;;;4.18;1.80;;;;;;;22.67;51.75;99114.03;2617734;54;20034;-65
2022/06/27 14:16:01;;;;;;;1.52;1.00;;;;;;;22.58;51.53;99108.34;2618760;54;20038;-65
2022/06/27 14:18:31;;;;;;;1.10;1.10;;;;;;;22.50;51.34;99117.72;2618792;39;20490;-64
2022/06/27 14:21:02;;;;;;;1.38;1.27;;;;;;;22.54;51.85;99104.56;2618451;54;20034;-64
2022/06/27 14:23:35;;;;;;;2.28;1.23;;;;;;;22.57;51.90;99106.69;2618147;54;20030;-64
2022/06/27 14:26:04;;;;;;;1.73;1.60;;;;;;;22.60;52.08;99121.53;2618106;54;20030;-65
2022/06/27 14:28:34;;;;;;;1.55;1.17;;;;;;;22.54;51.99;99111.81;2618415;54;20038;-65
2022/06/27 14:31:04;;;;;;;2.17;1.38;;;;;;;22.32;51.69;99110.09;2619078;39;20461;-66
2022/06/27 14:33:35;;;;;;;1.30;1.20;;;;;;;22.19;52.33;99116.75;2617816;54;20038;-66
2022/06/27 14:36:05;;;;;;;1.50;1.13;;;;;;;21.97;53.26;99106.09;2619266;54;20030;-66
2022/06/27 14:38:37;;;;;;;3.03;1.30;;;;;;;21.94;52.98;99116.56;2620012;39;20450;-65
2022/06/27 14:41:08;;;;;;;3.27;1.30;;;;;;;21.99;53.55;99117.41;2619304;54;20027;-66
2022/06/27 14:43:37;;;;;;;1.80;1.30;;;;;;;22.13;53.34;99109.75;2618205;47;20029;-66
2022/06/27 14:46:07;;;;;;;2.35;1.10;;;;;;;22.27;52.94;99112.75;2619004;54;20030;-65
2022/06/27 14:48:37;;;;;;;2.85;1.40;;;;;;;22.27;52.93;99104.69;2619760;39;20427;-66
2022/06/27 14:51:06;;;;;;;1.67;1.13;;;;;;;22.17;53.04;99101.97;2619427;54;20038;-66
2022/06/27 14:53:39;;;;;;;1.38;1.27;;;;;;;22.05;52.60;99112.09;2618705;47;20036;-65
2022/06/27 14:56:08;;;;;;;1.00;0.93;;;;;;;22.01;52.66;99095.63;2619901;39;20438;-65
2022/06/27 14:58:38;;;;;;;1.58;1.23;;;;;;;22.21;52.42;99097.66;2619079;39;20414;-64
2022/06/27 15:01:08;;;;;;;1.20;1.10;;;;;;;22.33;52.08;99106.34;2618130;54;20034;-65
2022/06/27 15:03:38;;;;;;;1.17;1.02;;;;;;;22.30;52.40;99112.25;2619101;54;20038;-64